Map

Track Data

SID SEASON NUMBER BASIN SUBBASIN NAME ISO_TIME NATURE LAT LON WMO_WIND WMO_PRES WMO_AGENCY TRACK_TYPE DIST2LAND LANDFALL IFLAG USA_AGENCY USA_ATCF_ID USA_LAT USA_LON USA_RECORD USA_STATUS USA_WIND USA_PRES USA_SSHS USA_R34_NE USA_R34_SE USA_R34_SW USA_R34_NW USA_R50_NE USA_R50_SE USA_R50_SW USA_R50_NW USA_R64_NE USA_R64_SE USA_R64_SW USA_R64_NW USA_POCI USA_ROCI USA_RMW USA_EYE TOKYO_LAT TOKYO_LON TOKYO_GRADE TOKYO_WIND TOKYO_PRES TOKYO_R50_DIR TOKYO_R50_LONG TOKYO_R50_SHORT TOKYO_R30_DIR TOKYO_R30_LONG TOKYO_R30_SHORT TOKYO_LAND CMA_LAT CMA_LON CMA_CAT CMA_WIND CMA_PRES HKO_LAT HKO_LON HKO_CAT HKO_WIND HKO_PRES NEWDELHI_LAT NEWDELHI_LON NEWDELHI_GRADE NEWDELHI_WIND NEWDELHI_PRES NEWDELHI_CI NEWDELHI_DP NEWDELHI_POCI REUNION_LAT REUNION_LON REUNION_TYPE REUNION_WIND REUNION_PRES REUNION_TNUM REUNION_CI REUNION_RMW REUNION_R34_NE REUNION_R34_SE REUNION_R34_SW REUNION_R34_NW REUNION_R50_NE REUNION_R50_SE REUNION_R50_SW REUNION_R50_NW REUNION_R64_NE REUNION_R64_SE REUNION_R64_SW REUNION_R64_NW BOM_LAT BOM_LON BOM_TYPE BOM_WIND BOM_PRES BOM_TNUM BOM_CI BOM_RMW BOM_R34_NE BOM_R34_SE BOM_R34_SW BOM_R34_NW BOM_R50_NE BOM_R50_SE BOM_R50_SW BOM_R50_NW BOM_R64_NE BOM_R64_SE BOM_R64_SW BOM_R64_NW BOM_ROCI BOM_POCI BOM_EYE BOM_POS_METHOD BOM_PRES_METHOD NADI_LAT NADI_LON NADI_CAT NADI_WIND NADI_PRES WELLINGTON_LAT WELLINGTON_LON WELLINGTON_WIND WELLINGTON_PRES DS824_LAT DS824_LON DS824_STAGE DS824_WIND DS824_PRES TD9636_LAT TD9636_LON TD9636_STAGE TD9636_WIND TD9636_PRES TD9635_LAT TD9635_LON TD9635_WIND TD9635_PRES TD9635_ROCI NEUMANN_LAT NEUMANN_LON NEUMANN_CLASS NEUMANN_WIND NEUMANN_PRES MLC_LAT MLC_LON MLC_CLASS MLC_WIND MLC_PRES USA_GUST BOM_GUST BOM_GUST_PER REUNION_GUST REUNION_GUST_PER USA_SEAHGT USA_SEARAD_NE USA_SEARAD_SE USA_SEARAD_SW USA_SEARAD_NW STORM_SPEED STORM_DIR
1990102S11092 1990 24 SI WA BESSI 1990-04-11 18:00:00 TS -11.0000 92.0000 main 1291 1269 O___________O_ jtwc_sh SH281990 -11.0000 92.0000 20 -1 -11.0000 92.0000 TC 20 9 326
1990102S11092 1990 24 SI WA BESSI 1990-04-11 21:00:00 TS -10.6226 91.7423 main 1275 1264 P___________P_ SH281990 -10.6226 91.7423 20 -1 -10.6226 91.7423 TC 20 9 325
1990102S11092 1990 24 SI WA BESSI 1990-04-12 00:00:00 TS -10.3000 91.5000 main 1264 1254 O___________O_ jtwc_sh SH281990 -10.3000 91.5000 20 -1 -10.3000 91.5000 TC 20 7 320
1990102S11092 1990 24 SI WA BESSI 1990-04-12 03:00:00 TS -10.0699 91.2726 main 1261 1260 P___________P_ SH281990 -10.0699 91.2726 20 -1 -10.0699 91.2726 TC 20 6 309
1990102S11092 1990 24 SI WA BESSI 1990-04-12 06:00:00 TS -9.90000 91.0000 main 1268 1267 O___________O_ jtwc_sh SH281990 -9.90000 91.0000 20 -1 -9.90000 91.0000 TC 20 7 298
1990102S11092 1990 24 SI WA BESSI 1990-04-12 09:00:00 TS -9.72005 90.6149 main 1283 1283 P___________P_ SH281990 -9.72005 90.6149 20 -1 -9.72005 90.6149 TC 20 8 291
1990102S11092 1990 24 SI WA BESSI 1990-04-12 12:00:00 TS -9.60000 90.2000 main 1307 1307 O___________O_ jtwc_sh SH281990 -9.60000 90.2000 20 -1 -9.60000 90.2000 TC 20 8 282
1990102S11092 1990 24 SI MM BESSI 1990-04-12 15:00:00 TS -9.56244 89.8425 main 1340 1340 P___________P_ SH281990 -9.56244 89.8425 20 -1 -9.56244 89.8425 TC 20 7 270
1990102S11092 1990 24 SI MM BESSI 1990-04-12 18:00:00 TS -9.60000 89.5000 main 1365 1365 O___________O_ jtwc_sh SH281990 -9.60000 89.5000 20 -1 -9.60000 89.5000 TC 20 7 262
1990102S11092 1990 24 SI MM BESSI 1990-04-12 21:00:00 TS -9.66252 89.1275 main 1406 1406 P___________P_ SH281990 -9.66252 89.1275 22 -1 -9.66252 89.1275 TC 22 7 242
1990102S11092 1990 24 SI MM BESSI 1990-04-13 00:00:00 TS -9.93333 88.8667 30 998 bom main 1438 1438 O_____O_____O_ jtwc_sh SH281990 -9.80000 88.8000 25 -1 -11.0000 89.4000 20 30 998 2.50000 172 3 6 -9.80000 88.8000 TC 25 7 215
1990102S11092 1990 24 SI MM BESSI 1990-04-13 03:00:00 TS -10.2295 88.7237 main 1476 1476 P_____P_____P_ SH281990 -9.98996 88.5625 25 -1 -11.1875 89.3688 20 30 998 223 -9.98996 88.5625 TC 25 7 197
1990102S11092 1990 24 SI MM BESSI 1990-04-13 06:00:00 TS -10.5945 88.6564 main 1505 1505 O_____P_____O_ jtwc_sh SH281990 -10.3000 88.4000 25 -1 -11.3800 89.3401 20 30 998 274 -10.3000 88.4000 TC 25 8 188
1990102S11092 1990 24 SI MM BESSI 1990-04-13 09:00:00 TS -11.0358 88.6039 main 1543 1543 P_____P_____P_ SH281990 -10.7625 88.2477 25 -1 -11.5825 89.3163 20 30 998 325 -10.7625 88.2477 TC 25 9 186
1990102S11092 1990 24 SI MM BESSI 1990-04-13 12:00:00 TS -11.4667 88.5667 30 998 bom main 1580 1580 O_____O_____O_ jtwc_sh SH281990 -11.3000 88.2000 25 -1 -11.8000 89.3000 20 30 998 2.50000 377 3 6 -11.3000 88.2000 TC 25 9 177
1990102S11092 1990 24 SI MM BESSI 1990-04-13 15:00:00 TS -11.8936 88.6441 main 1611 1604 P_____P_____P_ SH281990 -11.8225 88.3198 25 -1 -12.0356 89.2928 20 30 998 355 -11.8225 88.3198 TC 25 9 167
1990102S11092 1990 24 SI MM BESSI 1990-04-13 18:00:00 TS -12.2950 88.7642 main 1628 1628 O_____P_____O_ jtwc_sh SH281990 -12.3000 88.5000 25 -1 -12.2850 89.2925 20 30 998 334 -12.3000 88.5000 TC 25 8 165
1990102S11092 1990 24 SI MM BESSI 1990-04-13 21:00:00 TS -12.6489 88.8420 main 1652 1652 P_____P_____P_ SH281990 -12.7025 88.6150 25 -1 -12.5419 89.2959 20 30 998 313 -12.7025 88.6150 TC 25 7 169
1990102S11092 1990 24 SI MM BESSI 1990-04-14 00:00:00 TS -12.9333 88.9000 30 998 bom main 1670 1670 O_____O_____O_ jtwc_sh SH281990 -13.0000 88.7000 25 -1 -12.8000 89.3000 20 30 998 2.50000 292 3 6 -13.0000 88.7000 TC 25 5 169
1990102S11092 1990 24 SI MM BESSI 1990-04-14 03:00:00 TS -13.1289 88.9430 main 1686 1686 P_____P_____P_ SH281990 -13.1725 88.7725 27 -1 -13.0419 89.2839 20 30 998 332 -13.1725 88.7725 TC 27 4 170
1990102S11092 1990 24 SI MM BESSI 1990-04-14 06:00:00 TS -13.2950 88.9567 main 1696 1696 O_____P_____O_ jtwc_sh SH281990 -13.3000 88.8000 30 -1 -13.2850 89.2702 20 30 998 373 -13.3000 88.8000 TC 30 4 0
1990102S11092 1990 24 SI MM BESSI 1990-04-14 09:00:00 TS -13.5069 88.9338 main 1720 1720 P_____P_____P_ SH281990 -13.4925 88.7650 30 -1 -13.5356 89.2714 20 30 998 413 -13.4925 88.7650 TC 30 4 188
1990102S11092 1990 24 SI MM BESSI 1990-04-14 12:00:00 TS -13.7333 88.9000 30 998 bom main 1737 1737 O_____O_____O_ jtwc_sh SH281990 -13.7000 88.7000 30 -1 -13.8000 89.3000 20 30 998 2.50000 454 3 6 -13.7000 88.7000 TC 30 5 191
1990102S11092 1990 24 SI MM BESSI 1990-04-14 15:00:00 TS -13.9657 88.8426 main 1770 1770 P_____P_____P_ SH281990 -13.9000 88.6051 30 -1 -14.0973 89.3176 20 31 997 467 -13.9000 88.6051 TC 30 5 184
1990102S11092 1990 24 SI MM BESSI 1990-04-14 18:00:00 TS -14.2022 88.8569 main 1780 1780 O_____P_____O_ jtwc_sh SH281990 -14.1000 88.6000 30 -1 -14.4065 89.3708 20 32 996 481 -14.1000 88.6000 TC 30 5 160
1990102S11092 1990 24 SI MM BESSI 1990-04-14 21:00:00 TS -14.4024 89.0081 main 1791 1786 P_____P_____P_ SH281990 -14.2474 88.7679 30 -1 -14.7125 89.4886 20 33 995 494 -14.2474 88.7679 TC 30 6 137
1990102S11092 1990 24 SI MM BESSI 1990-04-15 00:00:00 TS -14.6667 89.3000 35 995 bom main 1798 1791 O_____O_____O_ jtwc_sh SH281990 -14.5000 89.1000 30 -1 -15.0000 89.7000 30 35 995 3.00000 508 3 6 -14.5000 89.1000 TC 30 10 134
1990102S11092 1990 24 SI MM BESSI 1990-04-15 03:00:00 TS -15.0830 89.7248 main 1809 1803 P_____P_____P_ SH281990 -15.0051 89.5622 32 -1 -15.2388 90.0499 30 35 994 437 -15.0051 89.5622 TC 32 13 136
1990102S11092 1990 24 SI WA BESSI 1990-04-15 06:00:00 TS -15.5667 90.2000 35 993 bom main 1826 1820 O_____O_____O_ jtwc_sh SH281990 -15.6000 90.1000 35 0 -15.5000 90.4000 30 35 993 3.00000 367 3 6 -15.6000 90.1000 TC 35 13 138
1990102S11092 1990 24 SI WA BESSI 1990-04-15 09:00:00 TS -16.0492 90.6398 main 1842 1842 P_____P_____P_ SH281990 -16.1526 90.6522 37 0 -15.8424 90.6151 30 37 991 388 -16.1526 90.6522 TC 37 12 139
1990102S11092 1990 24 SI WA BESSI 1990-04-15 12:00:00 TS -16.4667 91.0000 40 990 bom main 1866 1859 O_____O_____O_ jtwc_sh SH281990 -16.6000 91.1000 40 0 -16.2000 90.8000 30 40 990 3.00000 409 3 6 -16.6000 91.1000 TC 40 9 141
1990102S11092 1990 24 SI WA BESSI 1990-04-15 15:00:00 TS -16.7374 91.2211 main 1868 1868 P_____P_____P_ SH281990 -16.8523 91.3029 40 0 -16.5075 91.0575 30 40 990 -16.8523 91.3029 TC 40 6 143
1990102S11092 1990 24 SI WA BESSI 1990-04-15 18:00:00 TS -16.9333 91.3667 40 990 bom main 1871 1871 O_____O_____O_ jtwc_sh SH281990 -17.0000 91.4000 40 0 -16.8000 91.3000 30 40 990 3.00000 3 6 -17.0000 91.4000 TC 40 5 144
1990102S11092 1990 24 SI WA BESSI 1990-04-15 21:00:00 TS -17.1333 91.5218 main 1880 1879 P_____P_____P_ SH281990 -17.1500 91.5501 40 0 -17.0999 91.4651 30 40 990 -17.1500 91.5501 TC 40 5 144
1990102S11092 1990 24 SI WA BESSI 1990-04-16 00:00:00 TS -17.3333 91.6667 40 990 bom main 1879 1879 O_____O_____O_ jtwc_sh SH281990 -17.3000 91.7000 40 0 -17.4000 91.6000 30 40 990 3.00000 3 6 -17.3000 91.7000 TC 40 5 146
1990102S11092 1990 24 SI WA BESSI 1990-04-16 03:00:00 TS -17.5642 91.8217 main 1891 1883 P_____P_____P_ SH281990 -17.5000 91.8575 40 0 -17.6925 91.7501 30 40 991 -17.5000 91.8575 TC 40 6 149
1990102S11092 1990 24 SI WA BESSI 1990-04-16 06:00:00 TS -17.8000 91.9667 40 992 bom main 1889 1889 O_____O_____O_ jtwc_sh SH281990 -17.7000 92.0000 40 0 -18.0000 91.9000 30 40 992 3.00000 454 3 6 -17.7000 92.0000 TC 40 5 152
1990102S11092 1990 24 SI WA BESSI 1990-04-16 09:00:00 TS -18.0166 92.0759 main 1895 1895 P_____P_____P_ SH281990 -17.8500 92.0926 40 0 -18.3500 92.0426 30 37 992 442 -17.8500 92.0926 TC 40 5 153
1990102S11092 1990 24 SI WA BESSI 1990-04-16 12:00:00 TS -18.2333 92.2000 35 993 bom main 1901 1900 O_____O_____O_ jtwc_sh SH281990 -18.0000 92.2000 40 0 -18.7000 92.2000 30 35 993 3.00000 431 3 6 -18.0000 92.2000 TC 40 5 146
1990102S11092 1990 24 SI WA BESSI 1990-04-16 15:00:00 TS -18.4567 92.3925 main 1907 1899 P_____P_____P_ SH281990 -18.1850 92.3925 37 0 -19.0000 92.3926 30 35 993 428 -18.1850 92.3925 TC 37 7 144
1990102S11092 1990 24 SI WA BESSI 1990-04-16 18:00:00 TS -18.7600 92.6000 35 994 bom main 1914 1914 O_____V_____O_ jtwc_sh SH281990 -18.4000 92.6000 35 0 -19.3000 92.6000 30 35 994 3.00000 426 3 6 -18.4000 92.6000 TC 35 8 152
1990102S11092 1990 24 SI WA BESSI 1990-04-16 21:00:00 TS -19.1425 92.7825 main 1922 1922 P_____P_____P_ SH281990 -18.6425 92.7650 35 0 -19.6425 92.8001 30 35 994 423 -18.6425 92.7650 TC 35 9 158
1990102S11092 1990 24 SI WA BESSI 1990-04-17 00:00:00 TS -19.6333 92.9667 35 995 bom main 1947 1947 O_____O_____O_ jtwc_sh SH281990 -18.9000 92.9000 35 0 -20.0000 93.0000 30 35 995 3.00000 421 3 6 -18.9000 92.9000 TC 35 12 163
1990102S11092 1990 24 SI WA BESSI 1990-04-17 03:00:00 NR -20.3273 93.1705 main 1989 1989 ______P_______ SH281990 -1 -20.3273 93.1705 30 32 996 404 TC 11 159
1990102S11092 1990 24 SI WA BESSI 1990-04-17 06:00:00 NR -20.7000 93.4000 30 998 bom main 2009 2009 ______O_______ -1 -20.7000 93.4000 20 30 998 2.50000 388 3 6 10 146
1990102S11092 1990 24 SI WA BESSI 1990-04-17 09:00:00 NR -21.1776 93.7773 main 2025 1984 ______P_______ -1 -21.1776 93.7773 20 27 999 394 13 143
1990102S11092 1990 24 SI WA BESSI 1990-04-17 12:00:00 NR -21.7000 94.2000 25 1000 bom main 1984 1945 ______O_______ -1 -21.7000 94.2000 20 25 1000 2.00000 400 3 6 12 145
1990102S11092 1990 24 SI WA BESSI 1990-04-17 15:00:00 NR -22.1772 94.5284 main 1943 1892 ______P_______ -1 -22.1772 94.5284 20 22 1001 367 12 147
1990102S11092 1990 24 SI WA BESSI 1990-04-17 18:00:00 NR -22.7000 94.9000 20 1002 bom main 1892 1832 ______V_______ -1 -22.7000 94.9000 20 20 1002 1.50000 334 3 6 14 145
1990102S11092 1990 24 SI WA BESSI 1990-04-17 21:00:00 NR -23.3124 95.4054 main 1832 1755 ______P_______ -1 -23.3124 95.4054 20 20 1003 301 17 142
1990102S11092 1990 24 SI WA BESSI 1990-04-18 00:00:00 NR -24.0000 96.0000 20 1004 bom main 1755 1682 ______O_______ -1 -24.0000 96.0000 20 20 1004 1.50000 269 3 6 18 142
1990102S11092 1990 24 SI WA BESSI 1990-04-18 03:00:00 NR -24.7380 96.6384 main 1682 1600 ______P_______ -1 -24.7380 96.6384 20 17 1005 231 19 142
1990102S11092 1990 24 SI WA BESSI 1990-04-18 06:00:00 NR -25.5000 97.3000 15 1006 bom main 1600 ______O_______ -1 -25.5000 97.3000 20 15 1006 1.00000 193 3 6 19 142

About IBTrACS Database

This database is a web-friendly format of International Best Track Archive for Climate Stewardship (IBTrACS), a global best track data archive curated by NOAA dating back to 1842.

Updated: 2021-11-26